sensor_id;sensor_type;location;lat;lon;timestamp;temperature;humidity
431;DHT22;202;48.764;9.172;2023-09-18T01:43:01;23.70;27.30
431;DHT22;202;48.764;9.172;2023-09-18T01:45:47;23.70;27.30
431;DHT22;202;48.764;9.172;2023-09-18T01:48:47;23.70;27.30
431;DHT22;202;48.764;9.172;2023-09-18T01:51:24;23.70;27.30
431;DHT22;202;48.764;9.172;2023-09-18T01:53:52;23.70;27.40
431;DHT22;202;48.764;9.172;2023-09-18T01:56:30;23.70;27.50
431;DHT22;202;48.764;9.172;2023-09-18T01:58:59;23.70;26.40
431;DHT22;202;48.764;9.172;2023-09-18T02:01:29;23.70;26.30
431;DHT22;202;48.764;9.172;2023-09-18T02:04:00;23.80;26.40
431;DHT22;202;48.764;9.172;2023-09-18T02:06:33;24.00;26.50
431;DHT22;202;48.764;9.172;2023-09-18T02:09:16;23.90;28.80
431;DHT22;202;48.764;9.172;2023-09-18T02:11:47;23.80;31.40
431;DHT22;202;48.764;9.172;2023-09-18T02:14:23;23.70;32.70
431;DHT22;202;48.764;9.172;2023-09-18T02:16:59;23.50;30.70
431;DHT22;202;48.764;9.172;2023-09-18T02:19:28;23.50;34.20
431;DHT22;202;48.764;9.172;2023-09-18T02:21:56;23.40;35.90
431;DHT22;202;48.764;9.172;2023-09-18T02:24:23;23.30;35.40
431;DHT22;202;48.764;9.172;2023-09-18T02:26:50;23.30;34.30
431;DHT22;202;48.764;9.172;2023-09-18T02:29:17;23.30;33.60
431;DHT22;202;48.764;9.172;2023-09-18T02:31:45;23.30;33.00
431;DHT22;202;48.764;9.172;2023-09-18T02:34:12;23.30;30.50
431;DHT22;202;48.764;9.172;2023-09-18T02:36:39;23.40;32.90
431;DHT22;202;48.764;9.172;2023-09-18T02:39:06;23.30;35.40
431;DHT22;202;48.764;9.172;2023-09-18T02:41:33;23.30;33.60
431;DHT22;202;48.764;9.172;2023-09-18T02:44:00;23.30;36.20
431;DHT22;202;48.764;9.172;2023-09-18T02:46:27;23.30;37.00
431;DHT22;202;48.764;9.172;2023-09-18T02:48:56;23.10;36.30
431;DHT22;202;48.764;9.172;2023-09-18T02:51:23;23.10;35.20
431;DHT22;202;48.764;9.172;2023-09-18T02:53:50;23.10;36.10
431;DHT22;202;48.764;9.172;2023-09-18T02:56:17;23.00;35.10
431;DHT22;202;48.764;9.172;2023-09-18T02:58:44;23.10;32.90
431;DHT22;202;48.764;9.172;2023-09-18T03:01:11;23.00;32.40
431;DHT22;202;48.764;9.172;2023-09-18T03:03:38;23.00;30.60
431;DHT22;202;48.764;9.172;2023-09-18T03:06:08;23.00;30.90
431;DHT22;202;48.764;9.172;2023-09-18T03:08:36;23.10;30.10
431;DHT22;202;48.764;9.172;2023-09-18T03:11:11;23.00;30.90
431;DHT22;202;48.764;9.172;2023-09-18T03:13:43;23.00;30.00
431;DHT22;202;48.764;9.172;2023-09-18T03:16:11;23.00;30.40
431;DHT22;202;48.764;9.172;2023-09-18T03:18:39;23.00;30.20
431;DHT22;202;48.764;9.172;2023-09-18T03:21:05;23.00;31.40
431;DHT22;202;48.764;9.172;2023-09-18T03:23:33;22.90;32.20
431;DHT22;202;48.764;9.172;2023-09-18T03:26:00;22.90;32.60
431;DHT22;202;48.764;9.172;2023-09-18T03:28:28;22.80;32.80
431;DHT22;202;48.764;9.172;2023-09-18T03:30:55;22.50;33.90
431;DHT22;202;48.764;9.172;2023-09-18T03:33:21;22.50;34.70
431;DHT22;202;48.764;9.172;2023-09-18T03:35:49;22.40;34.50
431;DHT22;202;48.764;9.172;2023-09-18T03:38:16;22.30;34.50
431;DHT22;202;48.764;9.172;2023-09-18T03:40:44;22.40;35.10
431;DHT22;202;48.764;9.172;2023-09-18T03:43:11;22.40;34.50
431;DHT22;202;48.764;9.172;2023-09-18T03:45:39;22.40;35.60
431;DHT22;202;48.764;9.172;2023-09-18T03:48:06;22.50;35.70
431;DHT22;202;48.764;9.172;2023-09-18T03:50:33;22.50;35.30
431;DHT22;202;48.764;9.172;2023-09-18T03:53:00;22.60;34.80
431;DHT22;202;48.764;9.172;2023-09-18T03:55:27;22.60;34.80
431;DHT22;202;48.764;9.172;2023-09-18T03:57:56;22.60;33.60
431;DHT22;202;48.764;9.172;2023-09-18T04:00:23;22.70;32.80
431;DHT22;202;48.764;9.172;2023-09-18T04:02:50;22.60;32.10
431;DHT22;202;48.764;9.172;2023-09-18T04:05:17;22.50;33.40
431;DHT22;202;48.764;9.172;2023-09-18T04:07:44;22.50;33.50
431;DHT22;202;48.764;9.172;2023-09-18T04:10:12;22.50;33.40
431;DHT22;202;48.764;9.172;2023-09-18T04:12:44;22.50;33.40
431;DHT22;202;48.764;9.172;2023-09-18T04:15:14;22.50;33.30
431;DHT22;202;48.764;9.172;2023-09-18T04:17:42;22.60;34.30
431;DHT22;202;48.764;9.172;2023-09-18T04:20:09;22.50;33.90
431;DHT22;202;48.764;9.172;2023-09-18T04:22:41;22.60;33.90
431;DHT22;202;48.764;9.172;2023-09-18T04:25:08;22.60;34.70
431;DHT22;202;48.764;9.172;2023-09-18T04:27:35;22.60;33.90
431;DHT22;202;48.764;9.172;2023-09-18T04:30:02;22.60;34.90
431;DHT22;202;48.764;9.172;2023-09-18T04:32:31;22.60;34.70
431;DHT22;202;48.764;9.172;2023-09-18T04:34:58;22.70;34.10
431;DHT22;202;48.764;9.172;2023-09-18T04:37:26;22.60;34.70
431;DHT22;202;48.764;9.172;2023-09-18T04:39:54;22.60;35.50
431;DHT22;202;48.764;9.172;2023-09-18T04:42:21;22.60;37.20
431;DHT22;202;48.764;9.172;2023-09-18T04:44:48;22.50;34.60
431;DHT22;202;48.764;9.172;2023-09-18T04:47:14;22.60;35.60
431;DHT22;202;48.764;9.172;2023-09-18T04:49:42;22.70;36.10
431;DHT22;202;48.764;9.172;2023-09-18T04:52:10;22.70;37.60
431;DHT22;202;48.764;9.172;2023-09-18T04:54:37;22.60;36.70
431;DHT22;202;48.764;9.172;2023-09-18T04:57:04;22.50;37.20
431;DHT22;202;48.764;9.172;2023-09-18T04:59:31;22.50;36.80
431;DHT22;202;48.764;9.172;2023-09-18T05:01:58;22.40;36.30
431;DHT22;202;48.764;9.172;2023-09-18T05:04:25;22.40;36.10
431;DHT22;202;48.764;9.172;2023-09-18T05:06:54;22.40;36.40
431;DHT22;202;48.764;9.172;2023-09-18T05:09:21;22.40;35.80
431;DHT22;202;48.764;9.172;2023-09-18T05:11:49;22.30;37.10
431;DHT22;202;48.764;9.172;2023-09-18T05:14:15;22.30;36.00
431;DHT22;202;48.764;9.172;2023-09-18T05:16:42;22.20;37.00
431;DHT22;202;48.764;9.172;2023-09-18T05:19:09;22.20;37.00
431;DHT22;202;48.764;9.172;2023-09-18T05:21:37;22.30;37.00
431;DHT22;202;48.764;9.172;2023-09-18T05:24:09;22.40;36.90
431;DHT22;202;48.764;9.172;2023-09-18T05:26:36;22.30;36.90
431;DHT22;202;48.764;9.172;2023-09-18T05:29:03;22.30;37.20
431;DHT22;202;48.764;9.172;2023-09-18T05:31:31;22.40;36.80
431;DHT22;202;48.764;9.172;2023-09-18T05:33:58;22.40;36.50
431;DHT22;202;48.764;9.172;2023-09-18T05:36:26;22.30;36.20
431;DHT22;202;48.764;9.172;2023-09-18T05:38:53;22.20;37.20
431;DHT22;202;48.764;9.172;2023-09-18T05:41:22;22.20;37.90
431;DHT22;202;48.764;9.172;2023-09-18T05:43:51;22.20;37.90
431;DHT22;202;48.764;9.172;2023-09-18T05:46:19;22.30;37.20
431;DHT22;202;48.764;9.172;2023-09-18T05:48:46;22.20;37.20
431;DHT22;202;48.764;9.172;2023-09-18T05:51:13;22.20;37.60
431;DHT22;202;48.764;9.172;2023-09-18T05:53:40;22.30;36.80
431;DHT22;202;48.764;9.172;2023-09-18T05:56:06;22.30;37.10
431;DHT22;202;48.764;9.172;2023-09-18T05:58:36;22.40;37.00
431;DHT22;202;48.764;9.172;2023-09-18T06:01:04;22.30;36.70
431;DHT22;202;48.764;9.172;2023-09-18T06:03:31;22.20;36.60
431;DHT22;202;48.764;9.172;2023-09-18T06:06:01;22.20;37.30
431;DHT22;202;48.764;9.172;2023-09-18T06:08:28;22.20;37.40
431;DHT22;202;48.764;9.172;2023-09-18T06:10:56;22.20;37.70
431;DHT22;202;48.764;9.172;2023-09-18T06:13:24;22.00;37.80
431;DHT22;202;48.764;9.172;2023-09-18T06:15:53;21.90;39.40
431;DHT22;202;48.764;9.172;2023-09-18T06:18:20;21.90;41.20
431;DHT22;202;48.764;9.172;2023-09-18T06:20:47;22.00;41.40
431;DHT22;202;48.764;9.172;2023-09-18T06:23:14;21.90;40.50
431;DHT22;202;48.764;9.172;2023-09-18T06:25:41;21.80;41.90
431;DHT22;202;48.764;9.172;2023-09-18T06:28:08;21.80;42.00
431;DHT22;202;48.764;9.172;2023-09-18T06:30:36;21.90;42.50
431;DHT22;202;48.764;9.172;2023-09-18T06:33:05;21.90;42.90
431;DHT22;202;48.764;9.172;2023-09-18T06:35:31;21.70;44.20
431;DHT22;202;48.764;9.172;2023-09-18T06:37:58;21.80;44.30
431;DHT22;202;48.764;9.172;2023-09-18T06:40:25;21.80;44.30
431;DHT22;202;48.764;9.172;2023-09-18T06:42:58;21.80;45.20
431;DHT22;202;48.764;9.172;2023-09-18T06:45:25;21.80;46.30
431;DHT22;202;48.764;9.172;2023-09-18T06:47:53;21.50;47.90
431;DHT22;202;48.764;9.172;2023-09-18T06:50:21;21.50;48.80
431;DHT22;202;48.764;9.172;2023-09-18T06:52:47;21.50;49.00
431;DHT22;202;48.764;9.172;2023-09-18T06:55:15;21.50;49.60
431;DHT22;202;48.764;9.172;2023-09-18T06:57:42;21.50;50.70
431;DHT22;202;48.764;9.172;2023-09-18T07:00:11;21.40;50.30
431;DHT22;202;48.764;9.172;2023-09-18T07:02:40;21.30;51.20
431;DHT22;202;48.764;9.172;2023-09-18T07:05:07;21.40;51.20
431;DHT22;202;48.764;9.172;2023-09-18T07:07:36;21.50;50.70
431;DHT22;202;48.764;9.172;2023-09-18T07:10:03;21.60;49.80
431;DHT22;202;48.764;9.172;2023-09-18T07:12:30;21.60;50.20
431;DHT22;202;48.764;9.172;2023-09-18T07:14:59;21.60;49.40
431;DHT22;202;48.764;9.172;2023-09-18T07:17:28;21.70;51.30
431;DHT22;202;48.764;9.172;2023-09-18T07:19:55;21.80;50.40
431;DHT22;202;48.764;9.172;2023-09-18T07:22:22;21.80;48.20
431;DHT22;202;48.764;9.172;2023-09-18T07:24:53;21.90;49.90
431;DHT22;202;48.764;9.172;2023-09-18T07:27:23;22.00;45.70
431;DHT22;202;48.764;9.172;2023-09-18T07:29:50;22.10;44.60
431;DHT22;202;48.764;9.172;2023-09-18T07:32:17;22.20;41.60
431;DHT22;202;48.764;9.172;2023-09-18T07:34:59;22.20;39.50
431;DHT22;202;48.764;9.172;2023-09-18T07:37:37;22.20;38.70
431;DHT22;202;48.764;9.172;2023-09-18T07:40:11;22.30;37.30
431;DHT22;202;48.764;9.172;2023-09-18T07:42:42;22.40;38.30
431;DHT22;202;48.764;9.172;2023-09-18T07:48:06;22.40;38.90
431;DHT22;202;48.764;9.172;2023-09-18T07:50:43;22.40;37.80
431;DHT22;202;48.764;9.172;2023-09-18T07:53:27;22.40;37.80
431;DHT22;202;48.764;9.172;2023-09-18T07:56:12;22.40;37.60
431;DHT22;202;48.764;9.172;2023-09-18T07:58:50;22.50;36.80
431;DHT22;202;48.764;9.172;2023-09-18T08:01:30;22.60;36.20
431;DHT22;202;48.764;9.172;2023-09-18T08:03:58;22.70;35.40
431;DHT22;202;48.764;9.172;2023-09-18T08:06:26;22.80;36.10
431;DHT22;202;48.764;9.172;2023-09-18T08:08:53;22.80;35.80
431;DHT22;202;48.764;9.172;2023-09-18T08:11:23;22.90;35.00
431;DHT22;202;48.764;9.172;2023-09-18T08:13:50;22.80;34.90
431;DHT22;202;48.764;9.172;2023-09-18T08:16:18;22.80;35.70
431;DHT22;202;48.764;9.172;2023-09-18T08:18:46;22.80;35.00
431;DHT22;202;48.764;9.172;2023-09-18T08:21:13;22.70;34.80
431;DHT22;202;48.764;9.172;2023-09-18T08:23:42;22.60;34.70
431;DHT22;202;48.764;9.172;2023-09-18T08:26:09;22.50;34.70
431;DHT22;202;48.764;9.172;2023-09-18T08:28:37;22.50;36.10
431;DHT22;202;48.764;9.172;2023-09-18T08:31:09;22.40;35.40
431;DHT22;202;48.764;9.172;2023-09-18T08:33:35;22.50;35.70
431;DHT22;202;48.764;9.172;2023-09-18T08:36:02;22.40;35.90
431;DHT22;202;48.764;9.172;2023-09-18T08:38:29;22.30;37.00
431;DHT22;202;48.764;9.172;2023-09-18T08:40:57;22.20;40.50
431;DHT22;202;48.764;9.172;2023-09-18T08:43:24;22.10;39.70
431;DHT22;202;48.764;9.172;2023-09-18T08:45:56;22.20;39.50
431;DHT22;202;48.764;9.172;2023-09-18T08:48:28;22.20;39.70
431;DHT22;202;48.764;9.172;2023-09-18T08:51:01;22.10;39.70
431;DHT22;202;48.764;9.172;2023-09-18T08:53:29;22.00;40.90
431;DHT22;202;48.764;9.172;2023-09-18T08:55:58;21.90;41.80
431;DHT22;202;48.764;9.172;2023-09-18T08:58:28;21.80;43.30
431;DHT22;202;48.764;9.172;2023-09-18T09:01:00;21.80;44.10
431;DHT22;202;48.764;9.172;2023-09-18T09:03:29;21.70;44.20
431;DHT22;202;48.764;9.172;2023-09-18T09:05:56;21.70;45.10
431;DHT22;202;48.764;9.172;2023-09-18T09:08:23;21.70;44.20
431;DHT22;202;48.764;9.172;2023-09-18T09:10:49;21.70;44.20
431;DHT22;202;48.764;9.172;2023-09-18T09:13:17;21.70;44.20
431;DHT22;202;48.764;9.172;2023-09-18T09:15:45;21.60;45.10
431;DHT22;202;48.764;9.172;2023-09-18T09:18:14;21.60;46.70
431;DHT22;202;48.764;9.172;2023-09-18T09:20:41;21.50;46.30
431;DHT22;202;48.764;9.172;2023-09-18T09:23:18;21.50;48.10
431;DHT22;202;48.764;9.172;2023-09-18T09:25:45;21.50;48.40
431;DHT22;202;48.764;9.172;2023-09-18T09:28:12;21.30;50.20
431;DHT22;202;48.764;9.172;2023-09-18T09:30:39;21.20;51.90
431;DHT22;202;48.764;9.172;2023-09-18T09:33:06;21.10;52.00
431;DHT22;202;48.764;9.172;2023-09-18T09:35:38;21.10;53.60
431;DHT22;202;48.764;9.172;2023-09-18T09:38:15;21.00;53.50
431;DHT22;202;48.764;9.172;2023-09-18T09:43:11;21.00;54.80
431;DHT22;202;48.764;9.172;2023-09-18T09:44:38;20.80;56.00
431;DHT22;202;48.764;9.172;2023-09-18T09:51:00;20.70;58.70
431;DHT22;202;48.764;9.172;2023-09-18T09:53:47;20.70;58.10
431;DHT22;202;48.764;9.172;2023-09-18T09:56:18;20.80;57.70
431;DHT22;202;48.764;9.172;2023-09-18T10:01:47;21.00;55.00
431;DHT22;202;48.764;9.172;2023-09-18T10:04:17;21.10;57.90
431;DHT22;202;48.764;9.172;2023-09-18T10:06:56;21.20;59.80
431;DHT22;202;48.764;9.172;2023-09-18T10:10:13;21.40;52.90
431;DHT22;202;48.764;9.172;2023-09-18T10:13:12;21.30;53.80
431;DHT22;202;48.764;9.172;2023-09-18T10:15:50;21.10;56.10
431;DHT22;202;48.764;9.172;2023-09-18T10:18:59;21.00;57.10
431;DHT22;202;48.764;9.172;2023-09-18T10:22:10;20.90;56.70
431;DHT22;202;48.764;9.172;2023-09-18T10:26:27;21.00;57.90
431;DHT22;202;48.764;9.172;2023-09-18T10:28:15;21.10;55.90
431;DHT22;202;48.764;9.172;2023-09-18T10:30:43;21.10;58.40
431;DHT22;202;48.764;9.172;2023-09-18T10:33:11;21.00;57.20
431;DHT22;202;48.764;9.172;2023-09-18T10:35:39;21.00;59.40
431;DHT22;202;48.764;9.172;2023-09-18T10:38:17;21.10;60.50
431;DHT22;202;48.764;9.172;2023-09-18T10:41:08;21.00;58.60
431;DHT22;202;48.764;9.172;2023-09-18T10:43:57;20.90;58.30
431;DHT22;202;48.764;9.172;2023-09-18T10:46:36;20.90;59.00
431;DHT22;202;48.764;9.172;2023-09-18T10:49:09;21.00;59.30
431;DHT22;202;48.764;9.172;2023-09-18T10:51:55;21.00;58.70
431;DHT22;202;48.764;9.172;2023-09-18T10:54:42;21.00;56.50
431;DHT22;202;48.764;9.172;2023-09-18T10:57:11;21.00;58.40
431;DHT22;202;48.764;9.172;2023-09-18T10:59:47;21.00;58.20
431;DHT22;202;48.764;9.172;2023-09-18T11:02:20;21.10;56.80
431;DHT22;202;48.764;9.172;2023-09-18T11:04:50;21.00;55.20
431;DHT22;202;48.764;9.172;2023-09-18T11:07:47;21.10;55.10
431;DHT22;202;48.764;9.172;2023-09-18T11:13:50;20.90;56.30
431;DHT22;202;48.764;9.172;2023-09-18T11:16:35;20.80;57.10
431;DHT22;202;48.764;9.172;2023-09-18T11:19:30;20.90;57.20
431;DHT22;202;48.764;9.172;2023-09-18T11:22:22;21.00;58.70
431;DHT22;202;48.764;9.172;2023-09-18T11:28:23;21.20;56.00
431;DHT22;202;48.764;9.172;2023-09-18T11:31:01;21.10;56.30
431;DHT22;202;48.764;9.172;2023-09-18T11:33:33;21.00;57.90
431;DHT22;202;48.764;9.172;2023-09-18T11:36:06;21.00;56.80
431;DHT22;202;48.764;9.172;2023-09-18T11:38:57;21.10;56.00
431;DHT22;202;48.764;9.172;2023-09-18T11:41:34;21.20;55.60
431;DHT22;202;48.764;9.172;2023-09-18T11:44:32;21.20;53.70
431;DHT22;202;48.764;9.172;2023-09-18T11:47:13;21.30;53.10
431;DHT22;202;48.764;9.172;2023-09-18T11:49:53;21.40;52.70
431;DHT22;202;48.764;9.172;2023-09-18T11:52:31;21.20;51.90
431;DHT22;202;48.764;9.172;2023-09-18T11:54:59;21.30;52.50
431;DHT22;202;48.764;9.172;2023-09-18T11:57:26;21.20;53.30
431;DHT22;202;48.764;9.172;2023-09-18T11:59:54;21.10;53.00
431;DHT22;202;48.764;9.172;2023-09-18T12:02:27;21.20;53.70
431;DHT22;202;48.764;9.172;2023-09-18T12:05:05;21.30;53.50
431;DHT22;202;48.764;9.172;2023-09-18T12:07:34;21.40;52.20
431;DHT22;202;48.764;9.172;2023-09-18T12:10:04;21.40;52.30
431;DHT22;202;48.764;9.172;2023-09-18T12:12:35;21.40;52.40
431;DHT22;202;48.764;9.172;2023-09-18T12:15:06;21.50;53.30
431;DHT22;202;48.764;9.172;2023-09-18T12:17:56;21.50;51.20
431;DHT22;202;48.764;9.172;2023-09-18T12:24:20;21.50;52.40
431;DHT22;202;48.764;9.172;2023-09-18T12:26:47;21.30;52.20
431;DHT22;202;48.764;9.172;2023-09-18T12:29:14;21.40;52.90
431;DHT22;202;48.764;9.172;2023-09-18T12:31:41;21.30;52.70
431;DHT22;202;48.764;9.172;2023-09-18T12:34:16;21.30;53.80
431;DHT22;202;48.764;9.172;2023-09-18T12:36:46;21.50;53.70
431;DHT22;202;48.764;9.172;2023-09-18T12:39:20;21.60;52.10
431;DHT22;202;48.764;9.172;2023-09-18T12:41:50;21.70;51.00
431;DHT22;202;48.764;9.172;2023-09-18T12:44:17;21.60;51.10
431;DHT22;202;48.764;9.172;2023-09-18T12:46:48;21.70;51.30
431;DHT22;202;48.764;9.172;2023-09-18T12:49:19;21.90;50.90
431;DHT22;202;48.764;9.172;2023-09-18T12:52:01;22.00;49.60
431;DHT22;202;48.764;9.172;2023-09-18T12:54:39;22.20;48.30
431;DHT22;202;48.764;9.172;2023-09-18T12:57:05;22.40;47.60
431;DHT22;202;48.764;9.172;2023-09-18T12:59:32;22.30;46.90
431;DHT22;202;48.764;9.172;2023-09-18T13:02:04;22.30;46.20
431;DHT22;202;48.764;9.172;2023-09-18T13:04:51;22.50;45.80
431;DHT22;202;48.764;9.172;2023-09-18T13:07:25;22.40;44.80
431;DHT22;202;48.764;9.172;2023-09-18T13:10:02;22.50;44.90
431;DHT22;202;48.764;9.172;2023-09-18T13:12:39;22.50;42.60
431;DHT22;202;48.764;9.172;2023-09-18T13:15:07;22.50;43.50
431;DHT22;202;48.764;9.172;2023-09-18T13:17:38;22.40;42.80
431;DHT22;202;48.764;9.172;2023-09-18T13:20:10;22.40;41.40
431;DHT22;202;48.764;9.172;2023-09-18T13:22:38;22.60;39.40
431;DHT22;202;48.764;9.172;2023-09-18T13:25:05;22.60;38.30
431;DHT22;202;48.764;9.172;2023-09-18T13:27:33;22.60;39.10
431;DHT22;202;48.764;9.172;2023-09-18T13:30:00;22.80;39.50
431;DHT22;202;48.764;9.172;2023-09-18T13:32:33;22.80;39.30
431;DHT22;202;48.764;9.172;2023-09-18T13:35:01;22.90;37.60
431;DHT22;202;48.764;9.172;2023-09-18T13:37:32;23.10;37.30
431;DHT22;202;48.764;9.172;2023-09-18T13:39:59;23.20;36.70
431;DHT22;202;48.764;9.172;2023-09-18T13:42:28;23.30;36.60
431;DHT22;202;48.764;9.172;2023-09-18T13:44:56;23.30;35.40
431;DHT22;202;48.764;9.172;2023-09-18T13:47:29;23.30;35.40
431;DHT22;202;48.764;9.172;2023-09-18T13:49:56;23.10;34.60
431;DHT22;202;48.764;9.172;2023-09-18T13:52:25;23.20;35.30
431;DHT22;202;48.764;9.172;2023-09-18T13:54:56;22.90;35.00
431;DHT22;202;48.764;9.172;2023-09-18T13:57:24;23.10;35.20
431;DHT22;202;48.764;9.172;2023-09-18T13:59:51;23.10;35.20
431;DHT22;202;48.764;9.172;2023-09-18T14:02:19;23.00;35.10
431;DHT22;202;48.764;9.172;2023-09-18T14:04:46;23.00;35.10
431;DHT22;202;48.764;9.172;2023-09-18T14:07:16;23.10;35.20
431;DHT22;202;48.764;9.172;2023-09-18T14:09:44;23.20;34.70
431;DHT22;202;48.764;9.172;2023-09-18T14:12:20;23.30;35.10
431;DHT22;202;48.764;9.172;2023-09-18T14:14:54;23.40;33.80
431;DHT22;202;48.764;9.172;2023-09-18T14:17:21;23.30;33.00
431;DHT22;202;48.764;9.172;2023-09-18T14:19:48;23.20;32.80
431;DHT22;202;48.764;9.172;2023-09-18T14:22:18;23.20;31.30
431;DHT22;202;48.764;9.172;2023-09-18T14:24:47;23.20;31.20
431;DHT22;202;48.764;9.172;2023-09-18T14:27:14;23.10;31.00
431;DHT22;202;48.764;9.172;2023-09-18T14:29:49;22.90;32.00
431;DHT22;202;48.764;9.172;2023-09-18T14:32:21;23.00;31.80
431;DHT22;202;48.764;9.172;2023-09-18T14:34:52;23.10;31.60
431;DHT22;202;48.764;9.172;2023-09-18T14:40:00;23.20;31.90
431;DHT22;202;48.764;9.172;2023-09-18T14:42:28;23.30;31.60
431;DHT22;202;48.764;9.172;2023-09-18T14:44:57;23.30;31.60
431;DHT22;202;48.764;9.172;2023-09-18T14:47:28;23.30;31.10
431;DHT22;202;48.764;9.172;2023-09-18T14:49:58;23.40;30.90
431;DHT22;202;48.764;9.172;2023-09-18T14:52:27;23.50;30.00
431;DHT22;202;48.764;9.172;2023-09-18T14:54:56;23.20;30.60
431;DHT22;202;48.764;9.172;2023-09-18T14:57:25;23.20;30.50
431;DHT22;202;48.764;9.172;2023-09-18T14:59:56;23.30;30.30
431;DHT22;202;48.764;9.172;2023-09-18T15:02:25;23.30;29.90
431;DHT22;202;48.764;9.172;2023-09-18T15:04:55;23.30;29.90
431;DHT22;202;48.764;9.172;2023-09-18T15:07:22;23.30;29.80
431;DHT22;202;48.764;9.172;2023-09-18T15:09:52;23.20;29.90
431;DHT22;202;48.764;9.172;2023-09-18T15:12:19;23.20;30.40
431;DHT22;202;48.764;9.172;2023-09-18T15:14:46;23.10;30.30
431;DHT22;202;48.764;9.172;2023-09-18T15:17:17;23.10;31.10
431;DHT22;202;48.764;9.172;2023-09-18T15:19:49;23.10;30.50
431;DHT22;202;48.764;9.172;2023-09-18T15:22:21;23.10;30.90
431;DHT22;202;48.764;9.172;2023-09-18T15:24:50;23.10;30.40
431;DHT22;202;48.764;9.172;2023-09-18T15:27:17;23.20;30.00
431;DHT22;202;48.764;9.172;2023-09-18T15:29:55;23.30;30.40
431;DHT22;202;48.764;9.172;2023-09-18T15:32:23;23.10;30.00
431;DHT22;202;48.764;9.172;2023-09-18T15:34:53;23.20;30.10
431;DHT22;202;48.764;9.172;2023-09-18T15:37:20;23.20;29.50
431;DHT22;202;48.764;9.172;2023-09-18T15:39:49;23.20;29.50
431;DHT22;202;48.764;9.172;2023-09-18T15:42:16;23.10;30.00
431;DHT22;202;48.764;9.172;2023-09-18T15:44:46;23.10;29.60
431;DHT22;202;48.764;9.172;2023-09-18T15:47:16;23.10;30.00
431;DHT22;202;48.764;9.172;2023-09-18T15:49:44;23.10;30.00
431;DHT22;202;48.764;9.172;2023-09-18T15:52:13;23.00;30.00
431;DHT22;202;48.764;9.172;2023-09-18T15:54:48;23.00;29.90
431;DHT22;202;48.764;9.172;2023-09-18T15:57:17;22.90;29.60
431;DHT22;202;48.764;9.172;2023-09-18T16:00:00;22.90;29.90
431;DHT22;202;48.764;9.172;2023-09-18T16:02:30;22.80;30.20
431;DHT22;202;48.764;9.172;2023-09-18T16:05:01;22.90;30.00
431;DHT22;202;48.764;9.172;2023-09-18T16:07:30;23.00;29.70
431;DHT22;202;48.764;9.172;2023-09-18T16:10:00;23.00;29.30
431;DHT22;202;48.764;9.172;2023-09-18T16:12:28;22.90;29.90
431;DHT22;202;48.764;9.172;2023-09-18T16:15:01;22.90;30.00
431;DHT22;202;48.764;9.172;2023-09-18T16:17:35;22.90;30.60
431;DHT22;202;48.764;9.172;2023-09-18T16:20:06;23.00;30.20
431;DHT22;202;48.764;9.172;2023-09-18T16:22:35;23.00;30.20
431;DHT22;202;48.764;9.172;2023-09-18T16:25:03;23.00;29.40
431;DHT22;202;48.764;9.172;2023-09-18T16:27:32;23.00;29.60
431;DHT22;202;48.764;9.172;2023-09-18T16:30:11;23.10;29.60
431;DHT22;202;48.764;9.172;2023-09-18T16:32:41;23.00;29.40
431;DHT22;202;48.764;9.172;2023-09-18T16:35:10;23.10;30.30
431;DHT22;202;48.764;9.172;2023-09-18T16:37:41;23.00;29.50
431;DHT22;202;48.764;9.172;2023-09-18T16:40:12;22.90;29.60
431;DHT22;202;48.764;9.172;2023-09-18T16:42:41;22.90;30.00
431;DHT22;202;48.764;9.172;2023-09-18T16:45:10;22.90;29.90
431;DHT22;202;48.764;9.172;2023-09-18T16:47:42;22.90;30.20
431;DHT22;202;48.764;9.172;2023-09-18T16:50:10;22.80;30.70
431;DHT22;202;48.764;9.172;2023-09-18T16:52:37;22.90;30.70
431;DHT22;202;48.764;9.172;2023-09-18T16:55:14;22.90;30.30
431;DHT22;202;48.764;9.172;2023-09-18T16:57:41;22.80;30.00
431;DHT22;202;48.764;9.172;2023-09-18T17:00:21;22.80;30.90
431;DHT22;202;48.764;9.172;2023-09-18T17:02:51;22.70;31.80
431;DHT22;202;48.764;9.172;2023-09-18T17:05:21;22.70;32.80
431;DHT22;202;48.764;9.172;2023-09-18T17:07:50;22.60;31.80
431;DHT22;202;48.764;9.172;2023-09-18T17:10:17;22.70;31.90
431;DHT22;202;48.764;9.172;2023-09-18T17:12:44;22.70;30.80
431;DHT22;202;48.764;9.172;2023-09-18T17:15:11;22.60;31.20
431;DHT22;202;48.764;9.172;2023-09-18T17:17:40;22.50;32.70
431;DHT22;202;48.764;9.172;2023-09-18T17:20:12;22.50;32.80
431;DHT22;202;48.764;9.172;2023-09-18T17:22:41;22.60;31.80
431;DHT22;202;48.764;9.172;2023-09-18T17:25:10;22.50;32.90
431;DHT22;202;48.764;9.172;2023-09-18T17:27:37;22.50;33.40
431;DHT22;202;48.764;9.172;2023-09-18T17:30:05;22.50;33.50
431;DHT22;202;48.764;9.172;2023-09-18T17:32:35;22.40;33.80
431;DHT22;202;48.764;9.172;2023-09-18T17:35:05;22.40;33.90
431;DHT22;202;48.764;9.172;2023-09-18T17:37:33;22.40;32.60
431;DHT22;202;48.764;9.172;2023-09-18T17:40:05;22.50;32.80
431;DHT22;202;48.764;9.172;2023-09-18T17:42:32;22.40;32.80
431;DHT22;202;48.764;9.172;2023-09-18T17:44:59;22.40;33.80
431;DHT22;202;48.764;9.172;2023-09-18T17:47:26;22.40;33.40
431;DHT22;202;48.764;9.172;2023-09-18T17:49:55;22.50;32.80
431;DHT22;202;48.764;9.172;2023-09-18T17:52:22;22.50;32.60
431;DHT22;202;48.764;9.172;2023-09-18T17:54:52;22.50;33.30
431;DHT22;202;48.764;9.172;2023-09-18T17:57:24;22.50;32.90
431;DHT22;202;48.764;9.172;2023-09-18T17:59:55;22.50;33.00
431;DHT22;202;48.764;9.172;2023-09-18T18:02:25;22.30;33.30
431;DHT22;202;48.764;9.172;2023-09-18T18:04:54;22.40;33.40
431;DHT22;202;48.764;9.172;2023-09-18T18:07:23;22.30;33.70
431;DHT22;202;48.764;9.172;2023-09-18T18:09:50;22.30;34.10
431;DHT22;202;48.764;9.172;2023-09-18T18:12:18;22.30;34.50
431;DHT22;202;48.764;9.172;2023-09-18T18:15:03;22.20;34.40
431;DHT22;202;48.764;9.172;2023-09-18T18:17:48;22.20;34.40
431;DHT22;202;48.764;9.172;2023-09-18T18:20:41;22.30;34.50
431;DHT22;202;48.764;9.172;2023-09-18T18:23:52;22.30;34.50
431;DHT22;202;48.764;9.172;2023-09-18T18:32:38;22.10;34.70
431;DHT22;202;48.764;9.172;2023-09-18T18:35:14;22.00;34.80
431;DHT22;202;48.764;9.172;2023-09-18T18:37:51;22.00;35.50
431;DHT22;202;48.764;9.172;2023-09-18T18:43:30;21.90;36.10
431;DHT22;202;48.764;9.172;2023-09-18T18:46:11;22.00;36.00
431;DHT22;202;48.764;9.172;2023-09-18T19:02:02;21.90;35.70
431;DHT22;202;48.764;9.172;2023-09-18T19:04:43;21.90;35.90
431;DHT22;202;48.764;9.172;2023-09-18T19:10:31;21.90;36.30
431;DHT22;202;48.764;9.172;2023-09-18T19:13:14;21.90;36.60
431;DHT22;202;48.764;9.172;2023-09-18T19:25:46;21.40;40.20
431;DHT22;202;48.764;9.172;2023-09-18T19:28:16;21.30;40.40
431;DHT22;202;48.764;9.172;2023-09-18T19:30:44;21.20;40.60
431;DHT22;202;48.764;9.172;2023-09-18T19:33:21;20.90;43.30
431;DHT22;202;48.764;9.172;2023-09-18T19:35:55;20.90;43.50
431;DHT22;202;48.764;9.172;2023-09-18T19:38:23;20.80;44.50
